Time;durP1;ratioP1;P1;durP2;ratioP2;P2;SDS_P1;SDS_P2;PMS_P1;PMS_P2;Temp;Humidity;BMP_temperature;BMP_pressure;BME280_temperature;BME280_humidity;BME280_pressure;Samples;Min_cycle;Max_cycle;Signal;HPM_P1;HPM_P2
2022/04/27 00:00:29;;;;;;;0.00;0.00;;;4.80;99.90;;;;;;5098845;28;20048;-80
2022/04/27 00:02:58;;;;;;;0.00;0.00;;;4.70;99.90;;;;;;5098945;28;20047;-79
2022/04/27 00:05:28;;;;;;;0.15;0.00;;;4.60;99.90;;;;;;5115899;28;20051;-80
2022/04/27 00:07:54;;;;;;;0.00;0.00;;;4.60;99.90;;;;;;5115821;28;20088;-79
2022/04/27 00:10:19;;;;;;;0.00;0.00;;;4.70;99.90;;;;;;5115704;28;20047;-80
2022/04/27 00:12:46;;;;;;;0.00;0.00;;;4.60;99.90;;;;;;5115745;28;20051;-79
2022/04/27 00:15:12;;;;;;;0.00;0.00;;;4.70;99.90;;;;;;5115407;28;20055;-79
2022/04/27 00:17:38;;;;;;;0.00;0.00;;;4.60;99.90;;;;;;5115538;28;20510;-79
2022/04/27 00:20:06;;;;;;;0.00;0.00;;;4.60;99.90;;;;;;5115528;28;20044;-79
2022/04/27 00:22:31;;;;;;;0.00;0.00;;;4.50;99.90;;;;;;5098337;28;20499;-80
2022/04/27 00:25:01;;;;;;;0.00;0.00;;;4.60;99.90;;;;;;5115520;28;20047;-80
2022/04/27 00:27:27;;;;;;;0.00;0.00;;;4.60;99.90;;;;;;5115279;28;20051;-79
2022/04/27 00:29:54;;;;;;;0.00;0.00;;;4.50;99.90;;;;;;5115349;28;20050;-79
2022/04/27 00:32:19;;;;;;;0.00;0.00;;;4.40;99.90;;;;;;5115043;28;20483;-79
2022/04/27 00:34:45;;;;;;;0.03;0.00;;;4.40;99.90;;;;;;5115601;28;20054;-80
2022/04/27 00:37:11;;;;;;;0.00;0.00;;;4.30;99.90;;;;;;5098007;28;20395;-79
2022/04/27 00:39:36;;;;;;;0.00;0.00;;;4.30;99.90;;;;;;5114970;28;20051;-79
2022/04/27 00:42:18;;;;;;;0.00;0.00;;;4.20;99.90;;;;;;5115142;28;20050;-79
2022/04/27 00:44:45;;;;;;;1.45;0.03;;;4.30;99.90;;;;;;5097902;28;20112;-79
2022/04/27 00:47:12;;;;;;;0.45;0.22;;;4.30;99.90;;;;;;5115548;28;20047;-79
2022/04/27 00:49:43;;;;;;;0.00;0.00;;;4.20;99.90;;;;;;5114824;28;20501;-80
2022/04/27 00:52:13;;;;;;;0.00;0.00;;;4.20;99.90;;;;;;5098180;28;20051;-79
2022/04/27 00:54:46;;;;;;;0.00;0.00;;;4.30;99.90;;;;;;5097587;28;20059;-80
2022/04/27 00:57:12;;;;;;;0.10;0.00;;;4.30;99.90;;;;;;5097718;28;20161;-79
2022/04/27 00:59:39;;;;;;;0.30;0.20;;;4.30;99.90;;;;;;5114609;28;20126;-79
2022/04/27 01:02:05;;;;;;;0.10;0.00;;;4.20;99.90;;;;;;5115462;28;20051;-80
2022/04/27 01:04:33;;;;;;;0.00;0.00;;;4.10;99.90;;;;;;5097860;28;20040;-79
2022/04/27 01:06:59;;;;;;;0.00;0.00;;;4.10;99.90;;;;;;5097457;28;20052;-79
2022/04/27 01:09:25;;;;;;;0.00;0.00;;;4.00;99.90;;;;;;5114895;28;20043;-80
2022/04/27 01:11:52;;;;;;;0.00;0.00;;;3.90;99.90;;;;;;5097460;28;20051;-79
2022/04/27 01:14:18;;;;;;;0.00;0.00;;;3.90;99.90;;;;;;5097497;28;20060;-79
2022/04/27 01:16:53;;;;;;;0.03;0.00;;;3.80;99.90;;;;;;5097692;28;20044;-80
2022/04/27 01:19:21;;;;;;;0.00;0.00;;;3.80;99.90;;;;;;5097355;28;20499;-79
2022/04/27 01:21:47;;;;;;;0.00;0.00;;;3.80;99.90;;;;;;5097517;28;20134;-79
2022/04/27 01:24:13;;;;;;;0.52;0.00;;;3.80;99.90;;;;;;5114040;28;20475;-80
2022/04/27 01:26:38;;;;;;;1.38;0.20;;;3.80;99.90;;;;;;5114398;28;20126;-79
2022/04/27 01:29:04;;;;;;;0.10;0.00;;;3.80;99.90;;;;;;5114379;28;20467;-79
2022/04/27 01:31:30;;;;;;;0.00;0.00;;;3.70;99.90;;;;;;5114275;28;20094;-79
2022/04/27 01:33:56;;;;;;;0.00;0.00;;;3.70;99.90;;;;;;5114061;28;20078;-79
2022/04/27 01:36:22;;;;;;;0.00;0.00;;;3.70;99.90;;;;;;5097310;28;20051;-80
2022/04/27 01:38:48;;;;;;;0.03;0.00;;;3.80;99.90;;;;;;5097202;28;20102;-79
2022/04/27 01:41:14;;;;;;;0.10;0.05;;;3.60;99.90;;;;;;5113856;28;20079;-79
2022/04/27 01:43:40;;;;;;;0.43;0.05;;;3.70;99.90;;;;;;5114283;28;20496;-80
2022/04/27 01:46:06;;;;;;;0.00;0.00;;;3.70;99.90;;;;;;5114003;28;20138;-79
2022/04/27 01:48:33;;;;;;;0.00;0.00;;;3.60;99.90;;;;;;5114322;28;20043;-79
2022/04/27 01:50:58;;;;;;;0.32;0.00;;;3.60;99.90;;;;;;5096642;28;20051;-80
2022/04/27 01:56:08;;;;;;;0.00;0.00;;;3.50;99.90;;;;;;5113795;28;20104;-79
2022/04/27 01:58:34;;;;;;;0.30;0.20;;;3.50;99.90;;;;;;5096569;28;20146;-80
2022/04/27 02:01:00;;;;;;;0.00;0.00;;;3.50;99.90;;;;;;5113473;28;20039;-79
2022/04/27 02:03:26;;;;;;;0.00;0.00;;;3.50;99.90;;;;;;5097296;28;20054;-80
2022/04/27 02:05:56;;;;;;;0.03;0.00;;;3.40;99.90;;;;;;5113516;28;20043;-79
2022/04/27 02:08:22;;;;;;;2.25;0.15;;;3.40;99.90;;;;;;5113437;28;20418;-79
2022/04/27 02:10:47;;;;;;;1.23;0.55;;;3.50;99.90;;;;;;5113755;28;20048;-80
2022/04/27 02:13:13;;;;;;;0.00;0.00;;;3.50;99.90;;;;;;5096545;28;20430;-79
2022/04/27 02:15:39;;;;;;;0.00;0.00;;;3.50;99.90;;;;;;5113573;28;20069;-80
2022/04/27 02:18:06;;;;;;;0.00;0.00;;;3.40;99.90;;;;;;5113416;28;20043;-80
2022/04/27 02:20:32;;;;;;;0.00;0.00;;;3.50;99.90;;;;;;5113439;28;20135;-80
2022/04/27 02:22:58;;;;;;;0.03;0.00;;;3.50;99.90;;;;;;5113298;28;20069;-80
2022/04/27 02:25:24;;;;;;;0.00;0.00;;;3.40;99.90;;;;;;5113319;28;20040;-79
2022/04/27 02:27:49;;;;;;;0.10;0.10;;;3.30;99.90;;;;;;5096484;28;20043;-79
2022/04/27 02:30:16;;;;;;;0.00;0.00;;;3.30;99.90;;;;;;5112503;28;20039;-80
2022/04/27 02:32:43;;;;;;;0.00;0.00;;;3.30;99.90;;;;;;5113095;28;20058;-80
2022/04/27 02:35:09;;;;;;;0.35;0.20;;;3.30;99.90;;;;;;5112809;28;20506;-79
2022/04/27 02:37:36;;;;;;;0.00;0.00;;;3.30;99.90;;;;;;5096304;28;20130;-79
2022/04/27 02:40:02;;;;;;;0.05;0.00;;;3.20;99.90;;;;;;5113716;28;20054;-80
2022/04/27 02:42:28;;;;;;;0.00;0.00;;;3.20;99.90;;;;;;5113041;28;20504;-79
2022/04/27 02:44:55;;;;;;;0.20;0.10;;;3.20;99.90;;;;;;5113232;28;20148;-79
2022/04/27 02:47:21;;;;;;;0.00;0.00;;;3.10;99.90;;;;;;5095896;28;20061;-79
2022/04/27 02:52:31;;;;;;;1.15;0.22;;;3.00;99.90;;;;;;5113207;28;20052;-80
2022/04/27 02:54:56;;;;;;;0.00;0.00;;;3.00;99.90;;;;;;5112541;28;20067;-80
2022/04/27 02:57:22;;;;;;;0.00;0.00;;;3.00;99.90;;;;;;5095722;28;20051;-80
2022/04/27 02:59:48;;;;;;;0.00;0.00;;;3.00;99.90;;;;;;5095795;28;20146;-80
2022/04/27 03:02:14;;;;;;;0.00;0.00;;;3.00;99.90;;;;;;5112977;28;20051;-80
2022/04/27 03:04:39;;;;;;;0.10;0.10;;;3.00;99.90;;;;;;5095687;28;20059;-79
2022/04/27 03:07:08;;;;;;;0.20;0.20;;;3.10;99.90;;;;;;5113231;28;20101;-79
2022/04/27 03:09:34;;;;;;;0.32;0.10;;;3.20;99.90;;;;;;5113210;28;20039;-79
2022/04/27 03:12:00;;;;;;;0.00;0.00;;;3.10;99.90;;;;;;5112734;28;20046;-80
2022/04/27 03:14:28;;;;;;;0.00;0.00;;;3.20;99.90;;;;;;5112481;28;20081;-79
2022/04/27 03:16:54;;;;;;;0.30;0.30;;;3.10;99.90;;;;;;5112585;28;20047;-79
2022/04/27 03:19:20;;;;;;;0.15;0.15;;;3.20;99.90;;;;;;5112688;28;20040;-79
2022/04/27 03:21:46;;;;;;;0.00;0.00;;;3.20;99.90;;;;;;5112652;28;20172;-80
2022/04/27 03:24:12;;;;;;;0.00;0.00;;;3.30;99.90;;;;;;5096063;28;20085;-79
2022/04/27 03:26:38;;;;;;;0.00;0.00;;;3.30;99.90;;;;;;5112929;28;20496;-79
2022/04/27 03:29:04;;;;;;;0.25;0.25;;;3.30;99.90;;;;;;5112608;28;20429;-79
2022/04/27 03:31:30;;;;;;;0.00;0.00;;;3.30;99.90;;;;;;5095378;28;20062;-79
2022/04/27 03:33:56;;;;;;;0.25;0.00;;;3.30;99.90;;;;;;5112402;28;20047;-79
2022/04/27 03:36:21;;;;;;;0.05;0.00;;;3.40;99.90;;;;;;5112612;28;20039;-79
2022/04/27 03:38:50;;;;;;;0.00;0.00;;;3.40;99.90;;;;;;5112443;28;20044;-79
2022/04/27 03:41:22;;;;;;;0.43;0.43;;;3.50;99.90;;;;;;5112741;28;20097;-79
2022/04/27 03:43:49;;;;;;;0.60;0.10;;;3.50;99.90;;;;;;5116041;28;20055;-80
2022/04/27 03:46:15;;;;;;;0.03;0.03;;;3.60;99.90;;;;;;5099194;28;20059;-79
2022/04/27 03:48:41;;;;;;;0.00;0.00;;;3.60;99.90;;;;;;5116636;28;20134;-79
2022/04/27 03:51:07;;;;;;;3.10;1.02;;;3.60;99.90;;;;;;5115924;28;20399;-80
2022/04/27 03:53:33;;;;;;;0.00;0.00;;;3.70;99.90;;;;;;5115925;28;20085;-80
2022/04/27 03:55:59;;;;;;;0.00;0.00;;;3.80;99.90;;;;;;5098361;28;20083;-79
2022/04/27 03:58:25;;;;;;;0.00;0.00;;;3.80;99.90;;;;;;5115996;28;20087;-79
2022/04/27 04:00:50;;;;;;;0.00;0.00;;;3.80;99.90;;;;;;5115512;28;20471;-79
2022/04/27 04:03:16;;;;;;;0.00;0.00;;;3.80;99.90;;;;;;5098797;28;20411;-79
2022/04/27 04:05:42;;;;;;;0.00;0.00;;;3.80;99.90;;;;;;5098639;28;20092;-79
2022/04/27 04:08:08;;;;;;;0.00;0.00;;;3.80;99.90;;;;;;5116010;28;20384;-79
2022/04/27 04:10:34;;;;;;;0.15;0.15;;;3.80;99.90;;;;;;5115663;28;20047;-79
2022/04/27 04:13:00;;;;;;;0.10;0.00;;;3.90;99.90;;;;;;5098603;28;20044;-79
2022/04/27 04:15:26;;;;;;;0.25;0.05;;;3.90;99.90;;;;;;5115107;28;20046;-80
2022/04/27 04:17:51;;;;;;;0.00;0.00;;;4.00;99.90;;;;;;5115533;28;20426;-79
2022/04/27 04:20:18;;;;;;;0.00;0.00;;;4.00;99.90;;;;;;5115461;28;20135;-79
2022/04/27 04:22:45;;;;;;;0.00;0.00;;;4.00;99.90;;;;;;5098505;28;20130;-79
2022/04/27 04:30:39;;;;;;;0.05;0.05;;;4.10;99.90;;;;;;5115471;28;20098;-79
2022/04/27 04:33:05;;;;;;;0.57;0.00;;;4.00;99.90;;;;;;5115193;28;20036;-79
2022/04/27 04:35:31;;;;;;;0.30;0.10;;;4.00;99.90;;;;;;5114850;28;20379;-79
2022/04/27 04:37:57;;;;;;;1.35;0.30;;;4.00;99.90;;;;;;5097908;28;20387;-80
2022/04/27 04:40:22;;;;;;;0.05;0.05;;;4.00;99.90;;;;;;5114995;28;20048;-79
2022/04/27 04:42:48;;;;;;;0.10;0.10;;;4.00;99.90;;;;;;5115019;28;20084;-79
2022/04/27 04:45:14;;;;;;;0.00;0.00;;;4.00;99.90;;;;;;5114964;28;20047;-79
2022/04/27 04:47:42;;;;;;;1.00;0.20;;;4.00;99.90;;;;;;5114888;28;20048;-80
2022/04/27 04:50:09;;;;;;;2.28;0.13;;;4.00;99.90;;;;;;5114952;28;20047;-80
2022/04/27 04:52:34;;;;;;;0.00;0.00;;;4.10;99.90;;;;;;5097573;28;20052;-80
2022/04/27 04:55:00;;;;;;;0.00;0.00;;;4.20;99.90;;;;;;5113152;28;20062;-79
2022/04/27 04:57:26;;;;;;;0.00;0.00;;;4.20;99.90;;;;;;5097831;28;20403;-79
2022/04/27 04:59:51;;;;;;;0.00;0.00;;;4.30;99.90;;;;;;5098190;28;20043;-79
2022/04/27 05:02:17;;;;;;;0.00;0.00;;;4.30;99.90;;;;;;5097840;28;20051;-79
2022/04/27 05:04:43;;;;;;;0.00;0.00;;;4.40;99.90;;;;;;5114518;28;20043;-79
2022/04/27 05:07:09;;;;;;;0.98;0.40;;;4.50;99.90;;;;;;5097707;28;20043;-78
2022/04/27 05:09:34;;;;;;;0.00;0.00;;;4.50;99.90;;;;;;5114377;28;20505;-79
2022/04/27 05:12:00;;;;;;;5.03;0.03;;;4.60;99.90;;;;;;5097621;28;20059;-79
2022/04/27 05:14:26;;;;;;;0.32;0.20;;;4.70;99.90;;;;;;5097212;28;20049;-79
2022/04/27 05:16:52;;;;;;;0.00;0.00;;;4.80;99.90;;;;;;5097305;28;20058;-79
2022/04/27 05:19:17;;;;;;;0.00;0.00;;;4.80;99.90;;;;;;5097572;28;20078;-79
2022/04/27 05:21:43;;;;;;;0.10;0.00;;;4.90;99.90;;;;;;5114240;28;20161;-79
2022/04/27 05:24:11;;;;;;;1.75;0.10;;;5.10;99.90;;;;;;5113399;28;20479;-79
2022/04/27 05:26:37;;;;;;;0.03;0.03;;;5.20;99.90;;;;;;5114777;28;20448;-79
2022/04/27 05:31:54;;;;;;;0.43;0.40;;;5.40;99.90;;;;;;5075711;28;20150;-79
2022/04/27 05:34:20;;;;;;;0.05;0.05;;;5.60;99.90;;;;;;5075396;28;20094;-79
2022/04/27 05:36:46;;;;;;;0.10;0.10;;;5.80;99.90;;;;;;5058994;28;20117;-79
2022/04/27 05:39:13;;;;;;;0.00;0.00;;;5.80;99.90;;;;;;5075458;28;20051;-79
2022/04/27 05:41:38;;;;;;;0.00;0.00;;;5.90;99.90;;;;;;5075455;28;20058;-79
2022/04/27 05:44:09;;;;;;;0.00;0.00;;;6.00;99.90;;;;;;5075329;28;20138;-79
2022/04/27 05:46:35;;;;;;;0.00;0.00;;;6.10;99.90;;;;;;5075777;28;20044;-79
2022/04/27 05:49:01;;;;;;;0.00;0.00;;;6.20;99.90;;;;;;5075331;28;20058;-79
2022/04/27 05:51:27;;;;;;;1.42;0.17;;;6.20;99.90;;;;;;5075980;28;20048;-80
2022/04/27 05:53:52;;;;;;;0.45;0.45;;;6.30;99.90;;;;;;5074809;28;20120;-79
2022/04/27 05:56:19;;;;;;;0.00;0.00;;;6.30;99.90;;;;;;5074842;28;20101;-80
2022/04/27 05:58:45;;;;;;;0.40;0.30;;;6.40;99.90;;;;;;5075407;28;20085;-79
2022/04/27 06:01:11;;;;;;;0.10;0.10;;;6.40;99.90;;;;;;5075270;28;20047;-80
2022/04/27 06:03:38;;;;;;;0.00;0.00;;;6.50;99.90;;;;;;5075303;28;20462;-80
2022/04/27 06:06:04;;;;;;;0.00;0.00;;;6.50;99.90;;;;;;5074751;28;20052;-79
2022/04/27 06:08:29;;;;;;;0.00;0.00;;;6.70;99.90;;;;;;5070097;28;20059;-80
2022/04/27 06:10:55;;;;;;;0.30;0.00;;;6.80;99.90;;;;;;5113114;28;20510;-79
2022/04/27 06:13:21;;;;;;;0.10;0.10;;;6.90;99.90;;;;;;5112722;28;20062;-78
2022/04/27 06:15:46;;;;;;;0.00;0.00;;;7.10;99.90;;;;;;5113128;28;20075;-79
2022/04/27 06:18:12;;;;;;;1.65;0.40;;;7.10;99.90;;;;;;5096140;28;20098;-79
2022/04/27 06:20:38;;;;;;;0.88;0.45;;;7.20;99.90;;;;;;5113944;28;20039;-79
2022/04/27 06:23:03;;;;;;;0.00;0.00;;;7.20;99.90;;;;;;5113438;28;20043;-79
2022/04/27 06:25:30;;;;;;;0.00;0.00;;;7.30;99.90;;;;;;5113221;28;20454;-79
2022/04/27 06:27:56;;;;;;;0.00;0.00;;;7.40;99.90;;;;;;5112033;28;20063;-81
2022/04/27 06:30:24;;;;;;;0.05;0.00;;;7.50;99.90;;;;;;5112266;28;20040;-81
2022/04/27 06:32:51;;;;;;;0.00;0.00;;;7.60;99.90;;;;;;5112710;28;20094;-79
2022/04/27 06:35:16;;;;;;;0.10;0.10;;;7.80;99.90;;;;;;5095782;28;20162;-78
2022/04/27 06:37:42;;;;;;;0.20;0.20;;;7.90;99.90;;;;;;5112744;28;20447;-78
2022/04/27 06:40:09;;;;;;;0.00;0.00;;;8.00;99.90;;;;;;5096294;28;20059;-78
2022/04/27 06:42:35;;;;;;;0.00;0.00;;;8.00;99.90;;;;;;5113043;28;20058;-79
2022/04/27 06:45:03;;;;;;;0.00;0.00;;;8.00;99.90;;;;;;5096162;28;20056;-79
2022/04/27 06:47:29;;;;;;;0.00;0.00;;;8.20;99.90;;;;;;5096080;28;20063;-80
2022/04/27 06:49:54;;;;;;;0.15;0.00;;;8.30;99.90;;;;;;5095887;28;20051;-80
2022/04/27 06:52:20;;;;;;;0.00;0.00;;;8.40;99.90;;;;;;5113458;28;20048;-79
2022/04/27 06:54:46;;;;;;;0.05;0.05;;;8.50;99.90;;;;;;5112801;28;20043;-80
2022/04/27 06:57:12;;;;;;;0.05;0.00;;;8.60;99.90;;;;;;5112573;28;20081;-79
2022/04/27 06:59:37;;;;;;;0.00;0.00;;;8.70;99.90;;;;;;5112176;28;20503;-80
2022/04/27 07:02:04;;;;;;;1.40;0.82;;;8.80;99.90;;;;;;5112254;28;20130;-80
2022/04/27 07:04:36;;;;;;;0.00;0.00;;;9.00;99.90;;;;;;5113451;28;20087;-79
2022/04/27 07:07:03;;;;;;;0.00;0.00;;;8.90;99.90;;;;;;5095988;28;20051;-79
2022/04/27 07:09:29;;;;;;;0.20;0.00;;;9.00;99.90;;;;;;5113298;28;20134;-80
2022/04/27 07:11:55;;;;;;;0.00;0.00;;;9.10;99.90;;;;;;5112835;28;20047;-79
2022/04/27 07:14:21;;;;;;;0.30;0.00;;;9.20;99.90;;;;;;5095291;28;20138;-79
2022/04/27 07:16:47;;;;;;;0.20;0.20;;;9.20;99.90;;;;;;5096066;28;20142;-79
2022/04/27 07:19:13;;;;;;;0.00;0.00;;;9.20;99.90;;;;;;5116677;28;20047;-79
2022/04/27 07:21:39;;;;;;;0.00;0.00;;;9.10;99.90;;;;;;5115362;28;20051;-79
2022/04/27 07:24:05;;;;;;;0.00;0.00;;;9.20;99.90;;;;;;5099599;28;20036;-80
2022/04/27 07:26:32;;;;;;;0.00;0.00;;;9.30;99.90;;;;;;5099522;28;20106;-80
2022/04/27 07:28:58;;;;;;;0.00;0.00;;;9.30;99.90;;;;;;5099404;28;20138;-80
2022/04/27 07:31:24;;;;;;;1.27;0.10;;;9.40;99.90;;;;;;5099821;28;20441;-79
2022/04/27 07:33:51;;;;;;;0.00;0.00;;;9.40;99.90;;;;;;5099262;28;20489;-80
2022/04/27 07:36:17;;;;;;;0.00;0.00;;;9.40;99.90;;;;;;5099343;28;20092;-80
2022/04/27 07:38:43;;;;;;;0.00;0.00;;;9.50;99.90;;;;;;5115718;28;20128;-79
2022/04/27 07:41:08;;;;;;;0.00;0.00;;;9.50;99.90;;;;;;5116433;28;20048;-80
2022/04/27 07:43:34;;;;;;;0.00;0.00;;;9.60;99.90;;;;;;5116117;28;20055;-79
2022/04/27 07:46:00;;;;;;;0.30;0.10;;;9.70;99.90;;;;;;5099376;28;20063;-80
2022/04/27 07:48:32;;;;;;;0.10;0.00;;;9.90;99.90;;;;;;5099064;28;20509;-81
2022/04/27 07:50:59;;;;;;;0.00;0.00;;;9.90;99.90;;;;;;5099401;28;20048;-80
2022/04/27 07:53:25;;;;;;;0.10;0.10;;;9.90;99.90;;;;;;5099037;28;20469;-80
2022/04/27 07:55:51;;;;;;;0.00;0.00;;;10.00;99.90;;;;;;5098463;28;20067;-80
2022/04/27 07:58:17;;;;;;;0.00;0.00;;;10.10;99.90;;;;;;5115851;28;20391;-80
2022/04/27 08:00:42;;;;;;;0.00;0.00;;;10.20;99.90;;;;;;5116486;28;20093;-80
2022/04/27 08:03:08;;;;;;;0.00;0.00;;;10.40;99.90;;;;;;5115870;28;20036;-80
2022/04/27 08:05:34;;;;;;;0.00;0.00;;;10.50;99.90;;;;;;5115718;28;20498;-80
2022/04/27 08:08:00;;;;;;;0.25;0.25;;;10.60;99.90;;;;;;5098933;28;20051;-80
2022/04/27 08:10:26;;;;;;;0.00;0.00;;;10.70;99.90;;;;;;5095927;28;20061;-81
2022/04/27 08:12:52;;;;;;;0.00;0.00;;;10.80;99.90;;;;;;5096164;28;20063;-81
2022/04/27 08:15:19;;;;;;;0.00;0.00;;;10.90;99.90;;;;;;5113263;28;20059;-81
2022/04/27 08:18:01;;;;;;;0.00;0.00;;;10.90;99.90;;;;;;5096992;28;20134;-80
2022/04/27 08:23:32;;;;;;;0.00;0.00;;;11.00;99.90;;;;;;5113250;28;20483;-80
2022/04/27 08:26:04;;;;;;;0.30;0.20;;;11.10;99.90;;;;;;5097185;28;20136;-80
2022/04/27 08:28:30;;;;;;;0.10;0.10;;;11.20;99.90;;;;;;5113073;28;20112;-80
2022/04/27 08:30:56;;;;;;;0.00;0.00;;;11.20;99.90;;;;;;5112603;28;20146;-80
2022/04/27 08:33:22;;;;;;;0.00;0.00;;;11.30;99.90;;;;;;5096021;28;20108;-80
2022/04/27 08:35:48;;;;;;;0.00;0.00;;;11.40;99.20;;;;;;5113247;28;20043;-80
2022/04/27 08:38:14;;;;;;;0.00;0.00;;;11.40;99.60;;;;;;5113035;28;20052;-80
2022/04/27 08:40:42;;;;;;;0.00;0.00;;;11.40;97.40;;;;;;5113010;28;20047;-80
2022/04/27 08:43:11;;;;;;;5.38;0.85;;;11.50;99.10;;;;;;5096085;28;20056;-79
2022/04/27 08:45:40;;;;;;;0.00;0.00;;;11.50;96.80;;;;;;5096126;28;20055;-80
2022/04/27 08:48:07;;;;;;;0.00;0.00;;;11.60;97.80;;;;;;5112806;28;20055;-80
2022/04/27 08:50:32;;;;;;;1.27;0.47;;;11.70;97.30;;;;;;5095703;28;20036;-80
2022/04/27 08:52:58;;;;;;;0.10;0.10;;;11.80;96.80;;;;;;5113170;28;20040;-80
2022/04/27 08:55:27;;;;;;;0.00;0.00;;;11.90;95.90;;;;;;5113165;28;20039;-80
2022/04/27 08:58:13;;;;;;;0.00;0.00;;;12.10;96.20;;;;;;5095862;28;20100;-80
2022/04/27 09:00:40;;;;;;;0.00;0.00;;;12.30;94.30;;;;;;5111100;28;20055;-80
2022/04/27 09:03:26;;;;;;;0.00;0.00;;;12.30;90.90;;;;;;5095801;28;20491;-80
2022/04/27 09:06:15;;;;;;;0.00;0.00;;;12.40;94.10;;;;;;5095631;28;20058;-80
2022/04/27 09:08:48;;;;;;;0.00;0.00;;;12.40;93.60;;;;;;5112654;28;20055;-80
2022/04/27 09:11:18;;;;;;;0.00;0.00;;;12.50;92.10;;;;;;5094767;28;20090;-80
2022/04/27 09:13:55;;;;;;;0.10;0.10;;;12.60;93.10;;;;;;5112514;28;20052;-80
2022/04/27 09:16:26;;;;;;;0.00;0.00;;;12.60;92.70;;;;;;5112489;28;20147;-80
2022/04/27 09:21:55;;;;;;;0.00;0.00;;;12.60;92.60;;;;;;5111236;28;20093;-81
2022/04/27 09:24:20;;;;;;;0.00;0.00;;;12.60;91.50;;;;;;5112258;28;20047;-80
2022/04/27 09:26:57;;;;;;;0.00;0.00;;;12.60;92.40;;;;;;5112623;28;20415;-80
2022/04/27 09:29:27;;;;;;;0.00;0.00;;;12.70;92.30;;;;;;5111537;28;20188;-80
2022/04/27 09:31:57;;;;;;;0.00;0.00;;;12.70;87.40;;;;;;5094708;28;20052;-80
2022/04/27 09:34:29;;;;;;;0.00;0.00;;;12.70;88.20;;;;;;5111685;28;20052;-80
2022/04/27 09:37:05;;;;;;;0.20;0.15;;;12.60;90.00;;;;;;5112032;28;20052;-81
2022/04/27 09:39:30;;;;;;;0.00;0.00;;;12.70;91.40;;;;;;5093738;28;20146;-79
2022/04/27 09:42:08;;;;;;;0.00;0.00;;;12.80;89.50;;;;;;5111381;28;20122;-80
2022/04/27 09:44:37;;;;;;;0.00;0.00;;;12.70;89.90;;;;;;5075994;28;20040;-80
2022/04/27 09:47:04;;;;;;;0.00;0.00;;;12.60;90.10;;;;;;5074537;28;20104;-80
2022/04/27 09:49:40;;;;;;;0.00;0.00;;;12.60;88.90;;;;;;5077125;28;20048;-81
2022/04/27 09:52:07;;;;;;;0.00;0.00;;;12.80;88.80;;;;;;5076591;28;20048;-81
2022/04/27 09:54:36;;;;;;;0.00;0.00;;;12.80;86.60;;;;;;5093110;28;20040;-81
2022/04/27 09:57:08;;;;;;;0.10;0.10;;;12.80;88.10;;;;;;5075760;28;20048;-81
2022/04/27 09:59:36;;;;;;;0.03;0.03;;;12.80;87.50;;;;;;5077075;28;20380;-80
2022/04/27 10:02:18;;;;;;;0.00;0.00;;;12.80;87.20;;;;;;5076038;28;20064;-81
2022/04/27 10:04:45;;;;;;;0.00;0.00;;;12.80;89.50;;;;;;5092831;28;20067;-81
2022/04/27 10:07:13;;;;;;;0.00;0.00;;;12.90;87.00;;;;;;5076595;28;20127;-81
2022/04/27 10:09:39;;;;;;;0.00;0.00;;;12.90;87.80;;;;;;5092801;28;20415;-81
2022/04/27 10:12:07;;;;;;;0.00;0.00;;;13.00;86.50;;;;;;5076719;28;20505;-81
2022/04/27 10:14:33;;;;;;;0.00;0.00;;;13.10;88.40;;;;;;5093094;28;20097;-81
2022/04/27 10:16:59;;;;;;;0.13;0.00;;;13.20;88.80;;;;;;5093534;28;20040;-81
2022/04/27 10:19:26;;;;;;;0.00;0.00;;;13.20;84.20;;;;;;5093183;28;20441;-81
2022/04/27 10:24:34;;;;;;;0.00;0.00;;;13.30;86.50;;;;;;5092920;28;20051;-81
2022/04/27 10:27:26;;;;;;;0.00;0.00;;;13.40;84.90;;;;;;5075981;28;20048;-83
2022/04/27 10:30:07;;;;;;;0.05;0.05;;;13.40;82.90;;;;;;5076169;28;20064;-79
2022/04/27 10:32:48;;;;;;;0.52;0.10;;;13.40;83.70;;;;;;5093081;28;20071;-79
2022/04/27 10:35:15;;;;;;;0.00;0.00;;;13.40;84.20;;;;;;5076196;28;20396;-79
2022/04/27 10:37:49;;;;;;;0.15;0.00;;;13.50;84.70;;;;;;5093166;28;20105;-79
2022/04/27 10:40:38;;;;;;;0.10;0.10;;;13.50;84.60;;;;;;5093079;28;20051;-79
2022/04/27 10:43:15;;;;;;;0.00;0.00;;;13.50;82.30;;;;;;5074757;28;20105;-78
2022/04/27 10:45:43;;;;;;;0.00;0.00;;;13.50;80.20;;;;;;5058467;28;20056;-78
2022/04/27 10:48:18;;;;;;;0.00;0.00;;;13.80;79.60;;;;;;5058099;28;20097;-79
2022/04/27 10:51:03;;;;;;;0.57;0.00;;;14.00;78.80;;;;;;5075073;28;20052;-79
2022/04/27 10:53:38;;;;;;;0.00;0.00;;;14.20;78.90;;;;;;5061662;28;20419;-78
2022/04/27 10:56:20;;;;;;;4.20;0.85;;;14.20;77.40;;;;;;5062122;28;20499;-79
2022/04/27 10:58:45;;;;;;;0.00;0.00;;;14.30;75.70;;;;;;5078958;28;20043;-78
2022/04/27 11:01:11;;;;;;;0.10;0.10;;;14.10;75.30;;;;;;5078794;28;20500;-79
2022/04/27 11:03:39;;;;;;;0.00;0.00;;;14.20;77.10;;;;;;5062129;28;20048;-79
2022/04/27 11:06:09;;;;;;;1.95;0.32;;;14.20;75.80;;;;;;5078412;28;20155;-79
2022/04/27 11:08:59;;;;;;;0.00;0.00;;;14.20;77.40;;;;;;5078506;28;20488;-80
2022/04/27 11:11:26;;;;;;;0.00;0.00;;;14.20;75.90;;;;;;5060867;28;20531;-81
2022/04/27 11:14:03;;;;;;;0.00;0.00;;;14.10;76.30;;;;;;5061707;28;20063;-80
2022/04/27 11:16:29;;;;;;;0.13;0.10;;;14.10;75.50;;;;;;5062057;28;20044;-80
2022/04/27 11:18:59;;;;;;;0.00;0.00;;;14.00;73.70;;;;;;5078091;28;20071;-80
2022/04/27 11:21:30;;;;;;;0.00;0.00;;;14.00;75.50;;;;;;5079194;28;20491;-80
2022/04/27 11:23:58;;;;;;;0.00;0.00;;;14.00;75.00;;;;;;5096490;28;20499;-80
2022/04/27 11:26:24;;;;;;;0.17;0.17;;;14.00;75.50;;;;;;5079273;28;20399;-80
2022/04/27 11:28:55;;;;;;;0.00;0.00;;;14.00;74.10;;;;;;5096973;28;20127;-82
2022/04/27 11:31:21;;;;;;;0.00;0.00;;;14.10;74.30;;;;;;5096705;28;20557;-80
2022/04/27 11:33:47;;;;;;;0.00;0.00;;;14.80;79.50;;;;;;5095270;28;20047;-81
2022/04/27 11:36:24;;;;;;;0.00;0.00;;;15.40;76.50;;;;;;5079217;28;20480;-80
2022/04/27 11:38:50;;;;;;;0.00;0.00;;;16.10;71.70;;;;;;5079056;28;20480;-80
2022/04/27 11:41:22;;;;;;;0.00;0.00;;;16.70;71.80;;;;;;5095668;28;20603;-80
2022/04/27 11:43:49;;;;;;;0.65;0.50;;;17.00;70.40;;;;;;5095807;28;20098;-80
2022/04/27 11:46:15;;;;;;;0.00;0.00;;;17.20;70.90;;;;;;5096033;28;20044;-80
2022/04/27 11:48:47;;;;;;;0.00;0.00;;;17.50;70.60;;;;;;5095908;28;20044;-81
2022/04/27 11:51:13;;;;;;;0.00;0.00;;;17.20;68.00;;;;;;5095892;28;20043;-80
2022/04/27 11:53:49;;;;;;;0.00;0.00;;;17.00;67.40;;;;;;5095571;28;20051;-80
2022/04/27 11:56:17;;;;;;;0.00;0.00;;;16.60;66.70;;;;;;5095777;28;20048;-80
2022/04/27 11:58:45;;;;;;;0.03;0.00;;;16.20;67.20;;;;;;5094531;28;20055;-80
2022/04/27 12:01:19;;;;;;;0.00;0.00;;;15.80;66.70;;;;;;5094412;28;20083;-80
2022/04/27 12:03:44;;;;;;;0.00;0.00;;;15.50;66.70;;;;;;5094009;28;20109;-80
2022/04/27 12:06:21;;;;;;;0.00;0.00;;;15.40;68.20;;;;;;5094179;28;20438;-80
2022/04/27 12:08:47;;;;;;;0.00;0.00;;;15.30;70.80;;;;;;5077747;28;20400;-80
2022/04/27 12:11:23;;;;;;;0.00;0.00;;;15.10;68.10;;;;;;5094252;28;20040;-80
2022/04/27 12:13:49;;;;;;;0.00;0.00;;;15.10;70.10;;;;;;5077608;28;20050;-80
2022/04/27 12:16:15;;;;;;;0.00;0.00;;;15.10;69.50;;;;;;5094465;28;20392;-80
2022/04/27 12:18:54;;;;;;;0.35;0.20;;;15.50;71.10;;;;;;5093994;28;20036;-80
2022/04/27 12:21:24;;;;;;;0.13;0.13;;;15.70;69.10;;;;;;5094238;28;20075;-81
2022/04/27 12:23:51;;;;;;;0.00;0.00;;;15.70;66.50;;;;;;5076835;28;20415;-81
2022/04/27 12:26:18;;;;;;;0.00;0.00;;;15.70;68.20;;;;;;5077004;28;20048;-80
2022/04/27 12:28:46;;;;;;;0.00;0.00;;;15.80;65.20;;;;;;5093995;28;20124;-81
2022/04/27 12:31:16;;;;;;;0.00;0.00;;;16.30;70.20;;;;;;5093821;28;20051;-81
2022/04/27 12:33:44;;;;;;;0.00;0.00;;;16.80;69.00;;;;;;5093142;28;20048;-81
2022/04/27 12:39:02;;;;;;;0.00;0.00;;;17.30;64.20;;;;;;5094030;28;20053;-81
2022/04/27 12:41:46;;;;;;;1.05;0.28;;;17.50;63.40;;;;;;5076821;28;20040;-81
2022/04/27 12:44:25;;;;;;;0.30;0.20;;;17.40;64.70;;;;;;5093923;28;20055;-81
2022/04/27 12:47:03;;;;;;;0.00;0.00;;;17.70;67.70;;;;;;5076809;28;20136;-81
2022/04/27 12:49:34;;;;;;;0.00;0.00;;;17.90;64.10;;;;;;5076595;28;20059;-81
2022/04/27 12:52:19;;;;;;;0.00;0.00;;;18.20;65.30;;;;;;5076723;28;20396;-81
2022/04/27 12:54:46;;;;;;;;;;;18.40;64.00;;;;;;5076715;28;20036;-80
2022/04/27 12:57:12;;;;;;;0.00;0.00;;;18.30;63.00;;;;;;5053821;28;1132533;-80
2022/04/27 12:59:58;;;;;;;5.10;0.10;;;18.40;65.60;;;;;;5077485;28;20142;-81
2022/04/27 13:02:25;;;;;;;0.73;0.22;;;18.30;63.80;;;;;;5077274;28;20059;-81
2022/04/27 13:04:52;;;;;;;0.00;0.00;;;17.60;59.50;;;;;;5094290;28;20056;-80
2022/04/27 13:07:20;;;;;;;0.00;0.00;;;17.10;60.80;;;;;;5094195;28;20387;-81
2022/04/27 13:12:35;;;;;;;0.00;0.00;;;16.30;62.60;;;;;;5095140;28;20484;-81
2022/04/27 13:15:03;;;;;;;0.00;0.00;;;16.30;65.50;;;;;;5095007;28;20137;-81
2022/04/27 13:17:30;;;;;;;0.00;0.00;;;16.70;63.90;;;;;;5096663;28;20055;-80
2022/04/27 13:19:55;;;;;;;0.25;0.25;;;16.90;62.00;;;;;;5113872;28;20047;-81
2022/04/27 13:22:23;;;;;;;0.00;0.00;;;16.60;62.40;;;;;;5113798;28;20495;-81
2022/04/27 13:24:50;;;;;;;0.00;0.00;;;16.30;61.20;;;;;;5096648;28;20512;-81